sensor_id;sensor_type;location;lat;lon;timestamp;temperature;humidity
22607;DHT22;11470;20.968;105.834;2022-07-30T00:04:58;28.80;99.90
22607;DHT22;11470;20.968;105.834;2022-07-30T00:10:04;28.80;99.90
22607;DHT22;11470;20.968;105.834;2022-07-30T00:15:10;28.90;99.90
22607;DHT22;11470;20.968;105.834;2022-07-30T00:20:16;29.00;99.90
22607;DHT22;11470;20.968;105.834;2022-07-30T00:25:22;29.10;99.90
22607;DHT22;11470;20.968;105.834;2022-07-30T00:30:28;29.10;99.90
22607;DHT22;11470;20.968;105.834;2022-07-30T00:35:34;29.10;99.90
22607;DHT22;11470;20.968;105.834;2022-07-30T00:40:40;29.10;99.90
22607;DHT22;11470;20.968;105.834;2022-07-30T00:45:46;29.20;99.90
22607;DHT22;11470;20.968;105.834;2022-07-30T00:50:52;29.20;99.90
22607;DHT22;11470;20.968;105.834;2022-07-30T00:55:59;29.30;99.90
22607;DHT22;11470;20.968;105.834;2022-07-30T01:01:05;29.40;99.90
22607;DHT22;11470;20.968;105.834;2022-07-30T01:06:12;29.60;99.90
22607;DHT22;11470;20.968;105.834;2022-07-30T01:11:18;29.90;99.90
22607;DHT22;11470;20.968;105.834;2022-07-30T01:16:24;30.20;99.90
22607;DHT22;11470;20.968;105.834;2022-07-30T01:21:36;30.20;99.90
22607;DHT22;11470;20.968;105.834;2022-07-30T01:26:42;29.90;99.90
22607;DHT22;11470;20.968;105.834;2022-07-30T01:31:49;29.70;99.90
22607;DHT22;11470;20.968;105.834;2022-07-30T01:36:59;29.60;99.90
22607;DHT22;11470;20.968;105.834;2022-07-30T01:42:08;29.70;99.90
22607;DHT22;11470;20.968;105.834;2022-07-30T01:47:16;29.80;99.90
22607;DHT22;11470;20.968;105.834;2022-07-30T01:52:28;30.30;99.90
22607;DHT22;11470;20.968;105.834;2022-07-30T01:57:36;30.90;99.90
22607;DHT22;11470;20.968;105.834;2022-07-30T02:02:44;31.80;99.90
22607;DHT22;11470;20.968;105.834;2022-07-30T02:13:06;32.60;99.90
22607;DHT22;11470;20.968;105.834;2022-07-30T02:18:31;32.10;99.90
22607;DHT22;11470;20.968;105.834;2022-07-30T02:23:45;32.00;99.90
22607;DHT22;11470;20.968;105.834;2022-07-30T02:28:56;31.80;99.90
22607;DHT22;11470;20.968;105.834;2022-07-30T02:34:05;32.30;99.90
22607;DHT22;11470;20.968;105.834;2022-07-30T02:39:13;33.10;99.90
22607;DHT22;11470;20.968;105.834;2022-07-30T02:44:19;34.00;99.90
22607;DHT22;11470;20.968;105.834;2022-07-30T02:49:29;34.70;99.90
22607;DHT22;11470;20.968;105.834;2022-07-30T02:54:39;34.80;99.90
22607;DHT22;11470;20.968;105.834;2022-07-30T02:59:47;34.90;99.90
22607;DHT22;11470;20.968;105.834;2022-07-30T03:04:54;35.00;99.90
22607;DHT22;11470;20.968;105.834;2022-07-30T03:10:06;34.40;99.90
22607;DHT22;11470;20.968;105.834;2022-07-30T03:15:15;34.30;99.90
22607;DHT22;11470;20.968;105.834;2022-07-30T03:20:27;34.50;99.90
22607;DHT22;11470;20.968;105.834;2022-07-30T03:25:35;34.90;99.90
22607;DHT22;11470;20.968;105.834;2022-07-30T03:30:42;35.10;99.90
22607;DHT22;11470;20.968;105.834;2022-07-30T03:35:50;35.20;99.90
22607;DHT22;11470;20.968;105.834;2022-07-30T03:40:57;35.60;99.90
22607;DHT22;11470;20.968;105.834;2022-07-30T03:46:04;36.10;99.90
22607;DHT22;11470;20.968;105.834;2022-07-30T03:51:16;36.50;99.90
22607;DHT22;11470;20.968;105.834;2022-07-30T03:56:23;36.30;99.90
22607;DHT22;11470;20.968;105.834;2022-07-30T04:01:38;36.20;99.90
22607;DHT22;11470;20.968;105.834;2022-07-30T04:06:56;36.40;99.90
22607;DHT22;11470;20.968;105.834;2022-07-30T04:12:04;36.40;99.90
22607;DHT22;11470;20.968;105.834;2022-07-30T04:17:32;36.30;99.90
22607;DHT22;11470;20.968;105.834;2022-07-30T04:22:40;36.20;99.90
22607;DHT22;11470;20.968;105.834;2022-07-30T04:27:48;36.20;99.90
22607;DHT22;11470;20.968;105.834;2022-07-30T04:33:07;36.10;99.90
22607;DHT22;11470;20.968;105.834;2022-07-30T04:38:16;36.40;99.90
22607;DHT22;11470;20.968;105.834;2022-07-30T04:43:25;36.60;99.90
22607;DHT22;11470;20.968;105.834;2022-07-30T04:48:32;36.70;99.90
22607;DHT22;11470;20.968;105.834;2022-07-30T04:53:46;38.00;99.90
22607;DHT22;11470;20.968;105.834;2022-07-30T04:58:55;39.40;99.90
22607;DHT22;11470;20.968;105.834;2022-07-30T05:04:02;40.20;99.90
22607;DHT22;11470;20.968;105.834;2022-07-30T05:09:09;40.40;99.90
22607;DHT22;11470;20.968;105.834;2022-07-30T05:14:16;41.20;99.90
22607;DHT22;11470;20.968;105.834;2022-07-30T05:19:23;40.30;99.90
22607;DHT22;11470;20.968;105.834;2022-07-30T05:24:53;38.80;99.90
22607;DHT22;11470;20.968;105.834;2022-07-30T05:30:50;37.00;94.90
22607;DHT22;11470;20.968;105.834;2022-07-30T05:35:58;35.90;92.40
22607;DHT22;11470;20.968;105.834;2022-07-30T05:41:05;35.30;98.30
22607;DHT22;11470;20.968;105.834;2022-07-30T05:46:37;35.60;94.00
22607;DHT22;11470;20.968;105.834;2022-07-30T05:51:44;35.80;96.60
22607;DHT22;11470;20.968;105.834;2022-07-30T05:56:53;36.70;98.90
22607;DHT22;11470;20.968;105.834;2022-07-30T06:02:13;37.80;99.90
22607;DHT22;11470;20.968;105.834;2022-07-30T06:07:44;37.90;99.90
22607;DHT22;11470;20.968;105.834;2022-07-30T06:12:54;38.00;99.90
22607;DHT22;11470;20.968;105.834;2022-07-30T06:18:00;38.30;99.90
22607;DHT22;11470;20.968;105.834;2022-07-30T06:23:28;38.00;97.90
22607;DHT22;11470;20.968;105.834;2022-07-30T06:28:45;37.40;95.10
22607;DHT22;11470;20.968;105.834;2022-07-30T06:33:57;37.00;93.80
22607;DHT22;11470;20.968;105.834;2022-07-30T06:39:08;37.30;95.30
22607;DHT22;11470;20.968;105.834;2022-07-30T06:44:37;37.90;95.60
22607;DHT22;11470;20.968;105.834;2022-07-30T06:49:59;38.10;95.00
22607;DHT22;11470;20.968;105.834;2022-07-30T06:55:07;39.70;99.00
22607;DHT22;11470;20.968;105.834;2022-07-30T07:00:22;39.50;96.30
22607;DHT22;11470;20.968;105.834;2022-07-30T07:05:29;39.30;94.90
22607;DHT22;11470;20.968;105.834;2022-07-30T07:10:35;38.10;90.00
22607;DHT22;11470;20.968;105.834;2022-07-30T07:15:49;37.50;84.50
22607;DHT22;11470;20.968;105.834;2022-07-30T07:21:08;37.30;83.20
22607;DHT22;11470;20.968;105.834;2022-07-30T07:26:14;38.00;89.50
22607;DHT22;11470;20.968;105.834;2022-07-30T07:31:21;38.40;90.90
22607;DHT22;11470;20.968;105.834;2022-07-30T07:36:48;40.00;93.70
22607;DHT22;11470;20.968;105.834;2022-07-30T07:41:55;41.20;93.90
22607;DHT22;11470;20.968;105.834;2022-07-30T07:53:26;41.10;83.70
22607;DHT22;11470;20.968;105.834;2022-07-30T07:58:33;40.00;70.00
22607;DHT22;11470;20.968;105.834;2022-07-30T08:03:45;39.00;63.30
22607;DHT22;11470;20.968;105.834;2022-07-30T08:09:11;37.80;58.80
22607;DHT22;11470;20.968;105.834;2022-07-30T08:14:36;36.50;53.80
22607;DHT22;11470;20.968;105.834;2022-07-30T08:20:00;35.90;54.20
22607;DHT22;11470;20.968;105.834;2022-07-30T08:25:11;35.70;56.40
22607;DHT22;11470;20.968;105.834;2022-07-30T08:30:28;35.90;59.50
22607;DHT22;11470;20.968;105.834;2022-07-30T08:35:35;36.50;68.30
22607;DHT22;11470;20.968;105.834;2022-07-30T08:40:54;36.10;64.70
22607;DHT22;11470;20.968;105.834;2022-07-30T08:46:00;35.70;63.90
22607;DHT22;11470;20.968;105.834;2022-07-30T08:51:25;35.50;64.00
22607;DHT22;11470;20.968;105.834;2022-07-30T08:56:58;35.50;66.10
22607;DHT22;11470;20.968;105.834;2022-07-30T09:02:09;35.40;67.40
22607;DHT22;11470;20.968;105.834;2022-07-30T09:07:35;35.40;68.70
22607;DHT22;11470;20.968;105.834;2022-07-30T09:12:47;35.30;67.00
22607;DHT22;11470;20.968;105.834;2022-07-30T09:18:02;35.40;67.90
22607;DHT22;11470;20.968;105.834;2022-07-30T09:23:12;35.50;69.00
22607;DHT22;11470;20.968;105.834;2022-07-30T09:28:36;35.70;72.40
22607;DHT22;11470;20.968;105.834;2022-07-30T09:33:54;35.60;72.50
22607;DHT22;11470;20.968;105.834;2022-07-30T09:39:40;35.80;74.10
22607;DHT22;11470;20.968;105.834;2022-07-30T09:45:28;35.80;72.70
22607;DHT22;11470;20.968;105.834;2022-07-30T09:50:47;35.80;73.60
22607;DHT22;11470;20.968;105.834;2022-07-30T09:55:53;35.50;71.40
22607;DHT22;11470;20.968;105.834;2022-07-30T10:01:01;35.00;70.60
22607;DHT22;11470;20.968;105.834;2022-07-30T10:06:35;34.40;72.30
22607;DHT22;11470;20.968;105.834;2022-07-30T10:11:54;33.70;69.60
22607;DHT22;11470;20.968;105.834;2022-07-30T10:17:02;33.10;68.60
22607;DHT22;11470;20.968;105.834;2022-07-30T10:22:10;32.80;66.60
22607;DHT22;11470;20.968;105.834;2022-07-30T10:27:34;32.80;71.80
22607;DHT22;11470;20.968;105.834;2022-07-30T10:32:53;30.60;72.70
22607;DHT22;11470;20.968;105.834;2022-07-30T10:38:02;28.60;99.90
22607;DHT22;11470;20.968;105.834;2022-07-30T10:43:32;27.60;99.90
22607;DHT22;11470;20.968;105.834;2022-07-30T10:48:40;27.00;99.90
22607;DHT22;11470;20.968;105.834;2022-07-30T10:53:46;26.80;99.90
22607;DHT22;11470;20.968;105.834;2022-07-30T11:04:32;26.70;99.90
22607;DHT22;11470;20.968;105.834;2022-07-30T11:09:41;26.70;99.90
22607;DHT22;11470;20.968;105.834;2022-07-30T11:15:08;26.30;99.90
22607;DHT22;11470;20.968;105.834;2022-07-30T11:20:21;26.00;1.00
22607;DHT22;11470;20.968;105.834;2022-07-30T11:30:54;26.00;1.00
22607;DHT22;11470;20.968;105.834;2022-07-30T11:36:08;25.90;1.00
22607;DHT22;11470;20.968;105.834;2022-07-30T11:41:14;25.90;1.00
22607;DHT22;11470;20.968;105.834;2022-07-30T11:46:20;26.10;1.00
22607;DHT22;11470;20.968;105.834;2022-07-30T11:51:43;26.50;1.00
22607;DHT22;11470;20.968;105.834;2022-07-30T11:56:50;26.60;1.00
22607;DHT22;11470;20.968;105.834;2022-07-30T12:01:57;26.30;99.90
22607;DHT22;11470;20.968;105.834;2022-07-30T12:07:05;25.90;1.00
22607;DHT22;11470;20.968;105.834;2022-07-30T12:12:24;25.90;1.00
22607;DHT22;11470;20.968;105.834;2022-07-30T12:17:44;25.80;1.00
22607;DHT22;11470;20.968;105.834;2022-07-30T12:22:54;26.00;1.00
22607;DHT22;11470;20.968;105.834;2022-07-30T12:28:01;26.10;1.00
22607;DHT22;11470;20.968;105.834;2022-07-30T12:33:07;26.30;1.00
22607;DHT22;11470;20.968;105.834;2022-07-30T12:38:14;26.50;1.00
22607;DHT22;11470;20.968;105.834;2022-07-30T12:43:43;26.70;1.00
22607;DHT22;11470;20.968;105.834;2022-07-30T12:54:15;27.10;1.00
22607;DHT22;11470;20.968;105.834;2022-07-30T12:59:25;27.50;1.00
22607;DHT22;11470;20.968;105.834;2022-07-30T13:04:32;27.80;99.90
22607;DHT22;11470;20.968;105.834;2022-07-30T13:10:11;27.90;1.00
22607;DHT22;11470;20.968;105.834;2022-07-30T13:15:23;28.10;99.90
22607;DHT22;11470;20.968;105.834;2022-07-30T13:20:45;28.20;99.90
22607;DHT22;11470;20.968;105.834;2022-07-30T13:26:06;28.20;99.90
22607;DHT22;11470;20.968;105.834;2022-07-30T13:31:24;28.20;99.90
22607;DHT22;11470;20.968;105.834;2022-07-30T13:36:45;28.20;99.90
22607;DHT22;11470;20.968;105.834;2022-07-30T13:41:57;28.20;99.90
22607;DHT22;11470;20.968;105.834;2022-07-30T13:47:06;28.20;99.90
22607;DHT22;11470;20.968;105.834;2022-07-30T13:52:12;28.40;99.90
22607;DHT22;11470;20.968;105.834;2022-07-30T13:57:18;28.40;99.90
22607;DHT22;11470;20.968;105.834;2022-07-30T14:02:24;28.40;99.90
22607;DHT22;11470;20.968;105.834;2022-07-30T14:07:35;28.40;99.90
22607;DHT22;11470;20.968;105.834;2022-07-30T14:12:41;28.30;99.90
22607;DHT22;11470;20.968;105.834;2022-07-30T14:17:47;28.30;99.90
22607;DHT22;11470;20.968;105.834;2022-07-30T14:22:59;28.30;99.90
22607;DHT22;11470;20.968;105.834;2022-07-30T14:28:05;28.30;99.90
22607;DHT22;11470;20.968;105.834;2022-07-30T14:33:11;28.10;99.90
22607;DHT22;11470;20.968;105.834;2022-07-30T14:38:17;28.00;99.90
22607;DHT22;11470;20.968;105.834;2022-07-30T14:43:23;27.70;99.90
22607;DHT22;11470;20.968;105.834;2022-07-30T14:48:32;27.40;99.90
22607;DHT22;11470;20.968;105.834;2022-07-30T14:53:38;27.40;99.90
22607;DHT22;11470;20.968;105.834;2022-07-30T14:58:49;27.40;99.90
22607;DHT22;11470;20.968;105.834;2022-07-30T15:03:59;27.30;99.90
22607;DHT22;11470;20.968;105.834;2022-07-30T15:09:07;27.10;99.90
22607;DHT22;11470;20.968;105.834;2022-07-30T15:14:12;27.00;99.90
22607;DHT22;11470;20.968;105.834;2022-07-30T15:19:22;26.90;99.90
22607;DHT22;11470;20.968;105.834;2022-07-30T15:24:29;27.00;99.90
22607;DHT22;11470;20.968;105.834;2022-07-30T15:29:35;27.00;99.90
22607;DHT22;11470;20.968;105.834;2022-07-30T15:34:41;27.00;99.90
22607;DHT22;11470;20.968;105.834;2022-07-30T15:39:47;27.00;99.90
22607;DHT22;11470;20.968;105.834;2022-07-30T15:44:53;27.10;99.90
22607;DHT22;11470;20.968;105.834;2022-07-30T15:50:19;26.90;99.90
22607;DHT22;11470;20.968;105.834;2022-07-30T15:55:24;26.90;99.90
22607;DHT22;11470;20.968;105.834;2022-07-30T16:00:31;26.80;99.90
22607;DHT22;11470;20.968;105.834;2022-07-30T16:05:39;26.80;99.90
22607;DHT22;11470;20.968;105.834;2022-07-30T16:10:54;26.80;99.90
22607;DHT22;11470;20.968;105.834;2022-07-30T16:16:00;26.80;99.90
22607;DHT22;11470;20.968;105.834;2022-07-30T16:21:07;26.80;99.90
22607;DHT22;11470;20.968;105.834;2022-07-30T16:26:12;26.80;99.90
22607;DHT22;11470;20.968;105.834;2022-07-30T16:31:18;26.90;99.90
22607;DHT22;11470;20.968;105.834;2022-07-30T16:36:24;27.00;99.90
22607;DHT22;11470;20.968;105.834;2022-07-30T16:41:30;27.00;99.90
22607;DHT22;11470;20.968;105.834;2022-07-30T16:46:35;27.10;99.90
22607;DHT22;11470;20.968;105.834;2022-07-30T16:51:42;27.10;99.90
22607;DHT22;11470;20.968;105.834;2022-07-30T16:56:47;27.10;99.90
22607;DHT22;11470;20.968;105.834;2022-07-30T17:01:56;27.10;99.90
22607;DHT22;11470;20.968;105.834;2022-07-30T17:07:03;27.10;99.90
22607;DHT22;11470;20.968;105.834;2022-07-30T17:12:09;27.10;99.90
22607;DHT22;11470;20.968;105.834;2022-07-30T17:17:15;27.10;99.90
22607;DHT22;11470;20.968;105.834;2022-07-30T17:22:21;27.10;99.90
22607;DHT22;11470;20.968;105.834;2022-07-30T17:27:27;27.20;99.90
22607;DHT22;11470;20.968;105.834;2022-07-30T17:32:33;27.20;99.90
22607;DHT22;11470;20.968;105.834;2022-07-30T17:37:39;27.20;99.90
22607;DHT22;11470;20.968;105.834;2022-07-30T17:42:45;27.20;99.90
22607;DHT22;11470;20.968;105.834;2022-07-30T17:47:51;27.30;99.90
22607;DHT22;11470;20.968;105.834;2022-07-30T17:52:56;27.30;99.90
22607;DHT22;11470;20.968;105.834;2022-07-30T17:58:05;27.40;99.90
22607;DHT22;11470;20.968;105.834;2022-07-30T18:03:11;27.40;99.90
22607;DHT22;11470;20.968;105.834;2022-07-30T18:08:17;27.50;99.90
22607;DHT22;11470;20.968;105.834;2022-07-30T18:13:24;27.50;99.90
22607;DHT22;11470;20.968;105.834;2022-07-30T18:18:30;27.60;99.90
22607;DHT22;11470;20.968;105.834;2022-07-30T18:23:35;27.60;99.90
22607;DHT22;11470;20.968;105.834;2022-07-30T18:28:41;27.60;99.90
22607;DHT22;11470;20.968;105.834;2022-07-30T18:33:47;27.60;99.90
22607;DHT22;11470;20.968;105.834;2022-07-30T18:38:53;27.60;99.90
22607;DHT22;11470;20.968;105.834;2022-07-30T18:43:58;27.70;99.90
22607;DHT22;11470;20.968;105.834;2022-07-30T18:49:04;27.80;99.90
22607;DHT22;11470;20.968;105.834;2022-07-30T18:54:30;27.80;99.90
22607;DHT22;11470;20.968;105.834;2022-07-30T18:59:35;27.80;99.90
22607;DHT22;11470;20.968;105.834;2022-07-30T19:04:41;27.80;99.90
22607;DHT22;11470;20.968;105.834;2022-07-30T19:09:46;27.80;99.90
22607;DHT22;11470;20.968;105.834;2022-07-30T19:14:53;27.80;99.90
22607;DHT22;11470;20.968;105.834;2022-07-30T19:19:59;27.80;99.90
22607;DHT22;11470;20.968;105.834;2022-07-30T19:25:04;27.80;99.90
22607;DHT22;11470;20.968;105.834;2022-07-30T19:30:10;27.80;99.90
22607;DHT22;11470;20.968;105.834;2022-07-30T19:35:16;27.80;99.90
22607;DHT22;11470;20.968;105.834;2022-07-30T19:40:21;27.90;99.90
22607;DHT22;11470;20.968;105.834;2022-07-30T19:45:33;27.90;99.90
22607;DHT22;11470;20.968;105.834;2022-07-30T19:51:02;27.90;99.90
22607;DHT22;11470;20.968;105.834;2022-07-30T19:56:23;27.80;99.90
22607;DHT22;11470;20.968;105.834;2022-07-30T20:01:30;27.90;99.90
22607;DHT22;11470;20.968;105.834;2022-07-30T20:06:43;27.70;99.90
22607;DHT22;11470;20.968;105.834;2022-07-30T20:11:49;27.60;99.90
22607;DHT22;11470;20.968;105.834;2022-07-30T20:16:55;27.60;99.90
22607;DHT22;11470;20.968;105.834;2022-07-30T20:22:04;27.60;99.90
22607;DHT22;11470;20.968;105.834;2022-07-30T20:27:10;27.60;99.90
22607;DHT22;11470;20.968;105.834;2022-07-30T20:32:36;27.50;99.90
22607;DHT22;11470;20.968;105.834;2022-07-30T20:37:49;27.40;99.90
22607;DHT22;11470;20.968;105.834;2022-07-30T20:43:14;27.30;99.90
22607;DHT22;11470;20.968;105.834;2022-07-30T20:48:22;27.30;99.90
22607;DHT22;11470;20.968;105.834;2022-07-30T20:53:32;27.20;99.90
22607;DHT22;11470;20.968;105.834;2022-07-30T20:58:39;27.10;99.90
22607;DHT22;11470;20.968;105.834;2022-07-30T21:03:50;27.10;99.90
22607;DHT22;11470;20.968;105.834;2022-07-30T21:08:59;27.00;99.90
22607;DHT22;11470;20.968;105.834;2022-07-30T21:14:06;26.90;99.90
22607;DHT22;11470;20.968;105.834;2022-07-30T21:19:13;26.90;99.90
22607;DHT22;11470;20.968;105.834;2022-07-30T21:24:20;27.00;99.90
22607;DHT22;11470;20.968;105.834;2022-07-30T21:29:28;26.90;99.90
22607;DHT22;11470;20.968;105.834;2022-07-30T21:34:34;26.90;99.90
22607;DHT22;11470;20.968;105.834;2022-07-30T21:39:59;26.90;99.90
22607;DHT22;11470;20.968;105.834;2022-07-30T21:45:06;26.90;99.90
22607;DHT22;11470;20.968;105.834;2022-07-30T21:50:12;26.90;99.90
22607;DHT22;11470;20.968;105.834;2022-07-30T21:55:19;27.00;99.90
22607;DHT22;11470;20.968;105.834;2022-07-30T22:05:50;27.10;99.90
22607;DHT22;11470;20.968;105.834;2022-07-30T22:10:57;27.00;99.90
22607;DHT22;11470;20.968;105.834;2022-07-30T22:16:02;26.90;99.90
22607;DHT22;11470;20.968;105.834;2022-07-30T22:21:08;27.00;99.90
22607;DHT22;11470;20.968;105.834;2022-07-30T22:26:16;26.90;99.90
22607;DHT22;11470;20.968;105.834;2022-07-30T22:31:23;27.00;99.90
22607;DHT22;11470;20.968;105.834;2022-07-30T22:36:41;26.90;99.90
22607;DHT22;11470;20.968;105.834;2022-07-30T22:41:48;26.80;99.90
22607;DHT22;11470;20.968;105.834;2022-07-30T22:46:53;26.90;99.90
22607;DHT22;11470;20.968;105.834;2022-07-30T22:51:59;27.00;99.90
22607;DHT22;11470;20.968;105.834;2022-07-30T22:57:21;27.00;99.90
22607;DHT22;11470;20.968;105.834;2022-07-30T23:02:28;27.10;99.90
22607;DHT22;11470;20.968;105.834;2022-07-30T23:07:34;27.20;99.90
22607;DHT22;11470;20.968;105.834;2022-07-30T23:12:45;27.30;99.90
22607;DHT22;11470;20.968;105.834;2022-07-30T23:17:51;27.30;99.90
22607;DHT22;11470;20.968;105.834;2022-07-30T23:22:57;27.60;99.90
22607;DHT22;11470;20.968;105.834;2022-07-30T23:28:05;27.70;99.90
22607;DHT22;11470;20.968;105.834;2022-07-30T23:33:11;27.80;99.90
22607;DHT22;11470;20.968;105.834;2022-07-30T23:38:17;27.90;99.90
22607;DHT22;11470;20.968;105.834;2022-07-30T23:43:22;27.90;99.90
22607;DHT22;11470;20.968;105.834;2022-07-30T23:48:28;28.00;99.90
22607;DHT22;11470;20.968;105.834;2022-07-30T23:53:36;27.90;99.90
22607;DHT22;11470;20.968;105.834;2022-07-30T23:58:42;28.10;99.90
